Map

Track Data

SID SEASON NUMBER BASIN SUBBASIN NAME ISO_TIME NATURE LAT LON WMO_WIND WMO_PRES WMO_AGENCY TRACK_TYPE DIST2LAND LANDFALL IFLAG USA_AGENCY USA_ATCF_ID USA_LAT USA_LON USA_RECORD USA_STATUS USA_WIND USA_PRES USA_SSHS USA_R34_NE USA_R34_SE USA_R34_SW USA_R34_NW USA_R50_NE USA_R50_SE USA_R50_SW USA_R50_NW USA_R64_NE USA_R64_SE USA_R64_SW USA_R64_NW USA_POCI USA_ROCI USA_RMW USA_EYE TOKYO_LAT TOKYO_LON TOKYO_GRADE TOKYO_WIND TOKYO_PRES TOKYO_R50_DIR TOKYO_R50_LONG TOKYO_R50_SHORT TOKYO_R30_DIR TOKYO_R30_LONG TOKYO_R30_SHORT TOKYO_LAND CMA_LAT CMA_LON CMA_CAT CMA_WIND CMA_PRES HKO_LAT HKO_LON HKO_CAT HKO_WIND HKO_PRES NEWDELHI_LAT NEWDELHI_LON NEWDELHI_GRADE NEWDELHI_WIND NEWDELHI_PRES NEWDELHI_CI NEWDELHI_DP NEWDELHI_POCI REUNION_LAT REUNION_LON REUNION_TYPE REUNION_WIND REUNION_PRES REUNION_TNUM REUNION_CI REUNION_RMW REUNION_R34_NE REUNION_R34_SE REUNION_R34_SW REUNION_R34_NW REUNION_R50_NE REUNION_R50_SE REUNION_R50_SW REUNION_R50_NW REUNION_R64_NE REUNION_R64_SE REUNION_R64_SW REUNION_R64_NW BOM_LAT BOM_LON BOM_TYPE BOM_WIND BOM_PRES BOM_TNUM BOM_CI BOM_RMW BOM_R34_NE BOM_R34_SE BOM_R34_SW BOM_R34_NW BOM_R50_NE BOM_R50_SE BOM_R50_SW BOM_R50_NW BOM_R64_NE BOM_R64_SE BOM_R64_SW BOM_R64_NW BOM_ROCI BOM_POCI BOM_EYE BOM_POS_METHOD BOM_PRES_METHOD NADI_LAT NADI_LON NADI_CAT NADI_WIND NADI_PRES WELLINGTON_LAT WELLINGTON_LON WELLINGTON_WIND WELLINGTON_PRES DS824_LAT DS824_LON DS824_STAGE DS824_WIND DS824_PRES TD9636_LAT TD9636_LON TD9636_STAGE TD9636_WIND TD9636_PRES TD9635_LAT TD9635_LON TD9635_WIND TD9635_PRES TD9635_ROCI NEUMANN_LAT NEUMANN_LON NEUMANN_CLASS NEUMANN_WIND NEUMANN_PRES MLC_LAT MLC_LON MLC_CLASS MLC_WIND MLC_PRES USA_GUST BOM_GUST BOM_GUST_PER REUNION_GUST REUNION_GUST_PER USA_SEAHGT USA_SEARAD_NE USA_SEARAD_SE USA_SEARAD_SW USA_SEARAD_NW STORM_SPEED STORM_DIR
1991311N10256 1991 90 EP MM NORA 1991-11-07 00:00:00 TS 10.1000 -104.400 30 1006 hurdat_epa main 881 881 O_____________ hurdat_epa EP161991 10.1000 -104.400 TD 30 1006 -1 9 267
1991311N10256 1991 90 EP MM NORA 1991-11-07 03:00:00 TS 10.0776 -104.840 main 899 899 P_____________ EP161991 10.0776 -104.840 TD 30 1004 -1 9 276
1991311N10256 1991 90 EP MM NORA 1991-11-07 06:00:00 TS 10.2000 -105.300 30 1003 hurdat_epa main 915 902 O_____________ hurdat_epa EP161991 10.2000 -105.300 TD 30 1003 -1 11 297
1991311N10256 1991 90 EP MM NORA 1991-11-07 09:00:00 TS 10.5550 -105.792 main 895 867 P_____________ EP161991 10.5550 -105.792 TD 32 1001 -1 13 309
1991311N10256 1991 90 EP MM NORA 1991-11-07 12:00:00 TS 11.0000 -106.300 35 1000 hurdat_epa main 870 849 O_____________ hurdat_epa EP161991 11.0000 -106.300 TS 35 1000 0 13 310
1991311N10256 1991 90 EP MM NORA 1991-11-07 15:00:00 TS 11.3724 -106.800 main 849 838 P_____________ EP161991 11.3724 -106.800 TS 37 998 0 12 306
1991311N10256 1991 90 EP MM NORA 1991-11-07 18:00:00 TS 11.7000 -107.300 40 996 hurdat_epa main 843 836 O_____________ hurdat_epa EP161991 11.7000 -107.300 TS 40 996 0 12 302
1991311N10256 1991 90 EP MM NORA 1991-11-07 21:00:00 TS 11.9949 -107.800 main 842 839 P_____________ EP161991 11.9949 -107.800 TS 42 994 0 11 297
1991311N10256 1991 90 EP MM NORA 1991-11-08 00:00:00 TS 12.2000 -108.300 45 993 hurdat_epa main 855 855 O_____________ hurdat_epa EP161991 12.2000 -108.300 TS 45 993 0 10 287
1991311N10256 1991 90 EP MM NORA 1991-11-08 03:00:00 TS 12.2949 -108.808 main 879 879 P_____________ EP161991 12.2949 -108.808 TS 47 992 0 10 276
1991311N10256 1991 90 EP MM NORA 1991-11-08 06:00:00 TS 12.3000 -109.300 50 991 hurdat_epa main 910 910 O_____________ hurdat_epa EP161991 12.3000 -109.300 TS 50 991 0 9 268
1991311N10256 1991 90 EP MM NORA 1991-11-08 09:00:00 TS 12.2650 -109.773 main 939 939 P_____________ EP161991 12.2650 -109.773 TS 50 990 0 9 264
1991311N10256 1991 90 EP MM NORA 1991-11-08 12:00:00 TS 12.2000 -110.200 50 989 hurdat_epa main 973 973 O_____________ hurdat_epa EP161991 12.2000 -110.200 TS 50 989 0 8 260
1991311N10256 1991 90 EP MM NORA 1991-11-08 15:00:00 TS 12.1349 -110.565 main 1008 1008 P_____________ EP161991 12.1349 -110.565 TS 52 987 0 7 262
1991311N10256 1991 90 EP MM NORA 1991-11-08 18:00:00 TS 12.1000 -110.900 55 986 hurdat_epa main 1028 1028 O_____________ hurdat_epa EP161991 12.1000 -110.900 TS 55 986 0 7 269
1991311N10256 1991 90 EP MM NORA 1991-11-08 21:00:00 TS 12.1275 -111.250 main 1049 1049 P_____________ EP161991 12.1275 -111.250 TS 57 984 0 7 278
1991311N10256 1991 90 EP MM NORA 1991-11-09 00:00:00 TS 12.2000 -111.600 60 983 hurdat_epa main 1069 1069 O_____________ hurdat_epa EP161991 12.2000 -111.600 TS 60 983 0 7 282
1991311N10256 1991 90 EP MM NORA 1991-11-09 03:00:00 TS 12.2775 -111.965 main 1090 1090 P_____________ EP161991 12.2775 -111.965 TS 65 981 1 7 286
1991311N10256 1991 90 EP MM NORA 1991-11-09 06:00:00 TS 12.4000 -112.300 70 979 hurdat_epa main 1105 1105 O_____________ hurdat_epa EP161991 12.4000 -112.300 HU 70 979 1 7 297
1991311N10256 1991 90 EP MM NORA 1991-11-09 09:00:00 TS 12.5774 -112.565 main 1112 1112 P_____________ EP161991 12.5774 -112.565 HU 75 977 1 6 309
1991311N10256 1991 90 EP MM NORA 1991-11-09 12:00:00 TS 12.8000 -112.800 80 976 hurdat_epa main 1112 1111 O_____________ hurdat_epa EP161991 12.8000 -112.800 HU 80 976 1 7 314
1991311N10256 1991 90 EP MM NORA 1991-11-09 15:00:00 TS 13.0425 -113.065 main 1119 1112 P_____________ EP161991 13.0425 -113.065 HU 85 973 2 7 316
1991311N10256 1991 90 EP MM NORA 1991-11-09 18:00:00 TS 13.3000 -113.300 90 971 hurdat_epa main 1113 1106 O_____________ hurdat_epa EP161991 13.3000 -113.300 HU 90 971 2 7 322
1991311N10256 1991 90 EP MM NORA 1991-11-09 21:00:00 TS 13.5575 -113.480 main 1104 1086 P_____________ EP161991 13.5575 -113.480 HU 90 970 2 6 330
1991311N10256 1991 90 EP MM NORA 1991-11-10 00:00:00 TS 13.8000 -113.600 90 970 hurdat_epa main 1086 1065 O_____________ hurdat_epa EP161991 13.8000 -113.600 HU 90 970 2 5 339
1991311N10256 1991 90 EP MM NORA 1991-11-10 03:00:00 TS 14.0075 -113.658 main 1069 1048 P_____________ EP161991 14.0075 -113.658 HU 90 970 2 4 347
1991311N10256 1991 90 EP MM NORA 1991-11-10 06:00:00 TS 14.2000 -113.700 90 970 hurdat_epa main 1048 1031 O_____________ hurdat_epa EP161991 14.2000 -113.700 HU 90 970 2 4 342
1991311N10256 1991 90 EP MM NORA 1991-11-10 09:00:00 TS 14.4075 -113.793 main 1031 1015 P_____________ EP161991 14.4075 -113.792 HU 87 970 2 4 334
1991311N10256 1991 90 EP MM NORA 1991-11-10 12:00:00 TS 14.6000 -113.900 85 971 hurdat_epa main 1015 998 O_____________ hurdat_epa EP161991 14.6000 -113.900 HU 85 971 2 4 329
1991311N10256 1991 90 EP MM NORA 1991-11-10 15:00:00 TS 14.7650 -114.015 main 998 993 P_____________ EP161991 14.7650 -114.015 HU 80 973 1 4 327
1991311N10256 1991 90 EP MM NORA 1991-11-10 18:00:00 TS 14.9000 -114.100 75 975 hurdat_epa main 993 983 O_____________ hurdat_epa EP161991 14.9000 -114.100 HU 75 975 1 3 333
1991311N10256 1991 90 EP MM NORA 1991-11-10 21:00:00 TS 15.0075 -114.137 main 983 973 P_____________ EP161991 15.0075 -114.137 HU 67 977 1 2 8
1991311N10256 1991 90 EP MM NORA 1991-11-11 00:00:00 TS 15.1000 -114.100 60 980 hurdat_epa main 973 958 O_____________ hurdat_epa EP161991 15.1000 -114.100 TS 60 980 0 2 38
1991311N10256 1991 90 EP MM NORA 1991-11-11 03:00:00 TS 15.1850 -113.995 main 958 939 P_____________ EP161991 15.1850 -113.995 TS 52 983 0 4 56
1991311N10256 1991 90 EP MM NORA 1991-11-11 06:00:00 TS 15.3000 -113.800 45 987 hurdat_epa main 939 909 O_____________ hurdat_epa EP161991 15.3000 -113.800 TS 45 987 0 5 56
1991311N10256 1991 90 EP MM NORA 1991-11-11 09:00:00 TS 15.4774 -113.545 main 905 872 P_____________ EP161991 15.4774 -113.545 TS 40 990 0 7 55
1991311N10256 1991 90 EP MM NORA 1991-11-11 12:00:00 TS 15.7000 -113.200 35 993 hurdat_epa main 872 836 O_____________ hurdat_epa EP161991 15.7000 -113.200 TS 35 993 0 9 59
1991311N10256 1991 90 EP MM NORA 1991-11-11 15:00:00 TS 15.9125 -112.780 main 836 787 P_____________ EP161991 15.9125 -112.780 TS 32 995 -1 10 60
1991311N10256 1991 90 EP MM NORA 1991-11-11 18:00:00 TS 16.2000 -112.300 30 997 hurdat_epa main 787 729 O_____________ hurdat_epa EP161991 16.2000 -112.300 TD 30 997 -1 12 54
1991311N10256 1991 90 EP MM NORA 1991-11-11 21:00:00 TS 16.5975 -111.792 main 729 662 P_____________ EP161991 16.5975 -111.792 TD 30 998 -1 13 47
1991311N10256 1991 90 EP MM NORA 1991-11-12 00:00:00 TS 17.1000 -111.300 30 1000 hurdat_epa main 662 600 O_____________ hurdat_epa EP161991 17.1000 -111.300 TD 30 1000 -1 14 39
1991311N10256 1991 90 EP MM NORA 1991-11-12 03:00:00 TS 17.6623 -110.885 main 589 517 P_____________ EP161991 17.6623 -110.885 TD 30 1000 -1 14 32
1991311N10256 1991 90 EP MM NORA 1991-11-12 06:00:00 TS 18.3000 -110.500 30 1000 hurdat_epa main 517 447 O_____________ hurdat_epa EP161991 18.3000 -110.500 TD 30 1000 -1 15 30
1991311N10256 1991 90 EP MM NORA 1991-11-12 09:00:00 TS 18.9625 -110.092 main 436 357 P_____________ EP161991 18.9625 -110.092 TD 30 1000 -1 16 28
1991311N10256 1991 90 EP MM NORA 1991-11-12 12:00:00 TS 19.7000 -109.700 30 1001 hurdat_epa main 357 271 O_____________ hurdat_epa EP161991 19.7000 -109.700 TD 30 1001 -1 17 24
1991311N10256 1991 90 EP MM NORA 1991-11-12 15:00:00 TS 20.5251 -109.341 main 273 186 P_____________ EP161991 20.5251 -109.341 TD 30 1001 -1 18 21
1991311N10256 1991 90 EP MM NORA 1991-11-12 18:00:00 TS 21.4000 -109.000 30 1002 hurdat_epa main 186 O_____________ hurdat_epa EP161991 21.4000 -109.000 TD 30 1002 -1 19 20

About IBTrACS Database

This database is a web-friendly format of International Best Track Archive for Climate Stewardship (IBTrACS), a global best track data archive curated by NOAA dating back to 1842.

Updated: 2021-10-27